MMOX/OAX METAR and TAF weather

Enter ICAO airport designator
Station Type Date Time Source
MMOX METAR 2021/06/22 23:45 UTC NOAA

MMOX 222345Z 36009KT 8SM OVC030CB 20/14 A3011 RMK 8/900 TSRA NW SW


Station Type Date Time Source
MMOX Decoded METAR 2021/06/22 23:45 UTC NOAA

Oaxaca / Xoxocotlan, Mexico (MMOX) 16-58N 096-44W
Jun 22, 2021 - 07:45 PM EDT / 2021.06.22 2345 UTC
Wind: from the N (360 degrees) at 10 MPH (9 KT):0
Visibility: 8 mile(s):0
Sky conditions: overcast
Weather: Cumulonimbus clouds observed
Temperature: 68 F (20 C)
Dew Point: 57 F (14 C)
Relative Humidity: 68%
Pressure (altimeter): 30.11 in. Hg (1019 hPa)
ob: MMOX 222345Z 36009KT 8SM OVC030CB 20/14 A3011 RMK 8/900 TSRA NW SW
cycle: 0

Station Type Date Time Source
MMOX TAF 2021/06/22 18:40 UTC NOAA

TAF MMOX 221635Z 2218/2318 14010KT P6SM BKN030
TEMPO 2221/2301 5SM TSRA BKN025CB
FM230100 00000KT P6SM SCT020 BKN200

Example: see airport list